Time;durP1;ratioP1;P1;durP2;ratioP2;P2;SDS_P1;SDS_P2;PMS_P1;PMS_P2;Temp;Humidity;BMP_temperature;BMP_pressure;BME280_temperature;BME280_humidity;BME280_pressure;Samples;Min_cycle;Max_cycle;Signal;HPM_P1;HPM_P2
2022/10/18 00:01:41;;;;;;;32.97;17.35;;;;;;;11.91;100.00;93814.13;4955156;29;20058;-81
2022/10/18 00:04:07;;;;;;;32.75;18.10;;;;;;;11.85;100.00;93810.69;4956792;29;20172;-80
2022/10/18 00:06:32;;;;;;;32.55;18.08;;;;;;;11.87;100.00;93814.66;4955844;29;20042;-80
2022/10/18 00:08:58;;;;;;;32.95;18.15;;;;;;;11.85;100.00;93806.22;4956087;28;20532;-81
2022/10/18 00:11:23;;;;;;;42.40;19.33;;;;;;;11.88;100.00;93815.44;4955808;29;20035;-81
2022/10/18 00:13:49;;;;;;;35.38;18.80;;;;;;;11.87;100.00;93812.03;4939489;29;20047;-81
2022/10/18 00:16:16;;;;;;;44.40;20.52;;;;;;;11.86;100.00;93807.00;4956429;29;20404;-80
2022/10/18 00:18:43;;;;;;;40.15;20.05;;;;;;;11.88;100.00;93810.19;4957364;28;20067;-80
2022/10/18 00:21:15;;;;;;;44.42;21.58;;;;;;;11.87;100.00;93804.16;4956341;29;20039;-80
2022/10/18 00:23:41;;;;;;;;;;;;;;;11.90;100.00;93800.22;4957131;29;20321;-82
2022/10/18 00:26:11;;;;;;;42.58;20.40;;;;;;;11.90;100.00;93799.44;4940339;29;19977;-81
2022/10/18 00:28:37;;;;;;;45.42;21.70;;;;;;;11.89;100.00;93796.03;4957719;28;20038;-81
2022/10/18 00:31:16;;;;;;;42.55;21.05;;;;;;;11.86;100.00;93797.28;4956019;29;20050;-81
2022/10/18 00:33:44;;;;;;;44.95;21.85;;;;;;;11.86;100.00;93794.66;4956300;29;20588;-81
2022/10/18 00:36:11;;;;;;;47.88;21.52;;;;;;;11.85;100.00;93790.47;4957325;28;20434;-80
2022/10/18 00:38:37;;;;;;;44.78;22.10;;;;;;;11.84;100.00;93791.53;4956618;28;20073;-80
2022/10/18 00:41:05;;;;;;;50.95;22.63;;;;;;;11.79;100.00;93786.28;4955666;29;20740;-80
2022/10/18 00:43:30;;;;;;;45.13;22.08;;;;;;;11.83;100.00;93792.56;4939311;29;20118;-81
2022/10/18 00:45:56;;;;;;;48.50;22.85;;;;;;;11.79;100.00;93786.28;4954883;29;20135;-81
2022/10/18 00:48:23;;;;;;;49.38;22.73;;;;;;;11.78;100.00;93787.34;4956587;28;20114;-81
2022/10/18 00:50:51;;;;;;;43.50;21.75;;;;;;;11.76;100.00;93786.03;4955854;29;20027;-81
2022/10/18 00:53:22;;;;;;;47.15;21.85;;;;;;;11.78;100.00;93789.19;4954974;29;20067;-81
2022/10/18 00:55:48;;;;;;;40.33;20.25;;;;;;;11.76;100.00;93783.41;4955860;28;20031;-81
2022/10/18 00:58:16;;;;;;;48.30;22.85;;;;;;;11.75;100.00;93785.22;4955210;28;20047;-81
2022/10/18 01:00:42;;;;;;;45.70;22.02;;;;;;;11.78;100.00;93787.34;4944868;28;20031;-81
2022/10/18 01:03:08;;;;;;;39.60;20.30;;;;;;;11.78;100.00;93783.94;4938190;29;20420;-81
2022/10/18 01:05:47;;;;;;;45.58;22.20;;;;;;;11.77;100.00;93783.13;4954620;29;20043;-81
2022/10/18 01:08:41;;;;;;;48.28;23.33;;;;;;;11.75;100.00;93779.97;4938125;29;20147;-80
2022/10/18 01:11:25;;;;;;;38.33;20.70;;;;;;;11.76;100.00;93776.31;4955130;29;20082;-81
2022/10/18 01:14:28;;;;;;;35.28;19.63;;;;;;;11.76;100.00;93770.28;4955338;29;20062;-80
2022/10/18 01:17:00;;;;;;;41.80;19.33;;;;;;;11.76;100.00;93770.28;4955988;29;20031;-81
2022/10/18 01:19:25;;;;;;;34.40;17.40;;;;;;;11.74;100.00;93762.66;4954584;29;20177;-81
2022/10/18 01:21:58;;;;;;;31.85;16.25;;;;;;;11.75;100.00;93769.47;4954785;29;20318;-80
2022/10/18 01:25:00;;;;;;;31.15;16.80;;;;;;;11.75;100.00;93764.22;4955710;29;20035;-80
2022/10/18 01:27:35;;;;;;;28.02;15.35;;;;;;;11.74;100.00;93757.44;4934595;28;20058;-80
2022/10/18 01:30:24;;;;;;;31.92;15.57;;;;;;;11.74;100.00;93752.19;4938680;29;20552;-80
2022/10/18 01:32:53;;;;;;;33.47;14.85;;;;;;;11.71;100.00;93747.47;4935543;29;20035;-80
2022/10/18 01:35:29;;;;;;;30.65;14.20;;;;;;;11.72;100.00;93756.91;4935362;29;20055;-81
2022/10/18 01:37:59;;;;;;;27.15;13.93;;;;;;;11.70;100.00;93747.72;4935267;29;20106;-81
2022/10/18 01:40:25;;;;;;;32.75;14.85;;;;;;;11.69;100.00;93754.81;4919805;29;20031;-80
2022/10/18 01:42:51;;;;;;;28.67;14.63;;;;;;;11.66;100.00;93752.69;4935824;29;20040;-80
2022/10/18 01:45:19;;;;;;;28.27;13.18;;;;;;;11.64;100.00;93752.16;4937298;29;20058;-81
2022/10/18 01:47:47;;;;;;;25.55;12.65;;;;;;;11.61;100.00;93747.44;4937491;29;20039;-80
2022/10/18 01:50:13;;;;;;;24.63;12.10;;;;;;;11.59;100.00;93746.91;4937017;29;20076;-80
2022/10/18 01:52:49;;;;;;;21.83;11.50;;;;;;;11.56;100.00;93747.44;4937159;29;20032;-80
2022/10/18 01:55:15;;;;;;;22.60;12.05;;;;;;;11.55;100.00;93754.53;4937190;29;20454;-80
2022/10/18 01:57:48;;;;;;;21.13;11.77;;;;;;;11.51;100.00;93744.81;4940088;29;20101;-80
2022/10/18 02:00:17;;;;;;;22.00;11.90;;;;;;;11.51;100.00;93742.22;4939995;29;20046;-80
2022/10/18 02:03:05;;;;;;;23.35;12.68;;;;;;;11.50;100.00;93741.41;4923113;29;20035;-80
2022/10/18 02:06:09;;;;;;;21.45;12.40;;;;;;;11.49;100.00;93739.06;4938545;29;20036;-80
2022/10/18 02:08:45;;;;;;;26.60;12.88;;;;;;;11.48;100.00;93737.47;4940646;29;20055;-80
2022/10/18 02:11:16;;;;;;;24.20;12.90;;;;;;;11.41;100.00;93733.25;4939651;29;20131;-80
2022/10/18 02:13:46;;;;;;;21.48;12.80;;;;;;;11.42;100.00;93728.81;4923352;29;20043;-80
2022/10/18 02:16:18;;;;;;;26.95;13.57;;;;;;;11.40;100.00;93725.66;4940384;29;20049;-81
2022/10/18 02:19:14;;;;;;;37.00;15.80;;;;;;;11.41;100.00;93721.97;4939027;29;20561;-80
2022/10/18 02:21:42;;;;;;;30.95;15.20;;;;;;;11.41;100.00;93717.53;4934051;29;20055;-79
2022/10/18 02:24:11;;;;;;;29.45;16.10;;;;;;;11.40;100.00;93712.56;4940957;29;20031;-80
2022/10/18 02:26:37;;;;;;;32.38;16.70;;;;;;;11.41;100.00;93717.53;4940323;29;20035;-80
2022/10/18 02:29:03;;;;;;;29.17;15.27;;;;;;;11.41;100.00;93712.28;4938398;29;20171;-81
2022/10/18 02:31:31;;;;;;;31.27;15.68;;;;;;;11.40;100.00;93707.31;4947798;29;20038;-80
2022/10/18 02:33:59;;;;;;;34.72;16.27;;;;;;;11.39;100.00;93708.34;4957205;29;20129;-79
2022/10/18 02:36:30;;;;;;;33.92;15.73;;;;;;;11.36;100.00;93701.78;4941643;29;20187;-80
2022/10/18 02:39:06;;;;;;;26.10;14.35;;;;;;;11.39;100.00;93705.72;4957293;28;20471;-80
2022/10/18 02:41:32;;;;;;;27.08;15.23;;;;;;;11.39;100.00;93690.81;4958514;28;20481;-80
2022/10/18 02:43:58;;;;;;;22.65;13.63;;;;;;;11.38;100.00;93691.84;4941123;29;20039;-80
2022/10/18 02:46:24;;;;;;;26.48;13.88;;;;;;;11.39;100.00;93688.19;4956835;29;20134;-80
2022/10/18 02:48:49;;;;;;;31.45;14.50;;;;;;;11.37;100.00;93679.78;4956640;28;20031;-80
2022/10/18 02:51:15;;;;;;;32.75;15.55;;;;;;;11.38;100.00;93688.44;4957862;29;20039;-79
2022/10/18 02:53:41;;;;;;;28.65;14.93;;;;;;;11.39;100.00;93682.94;4957295;29;20063;-80
2022/10/18 02:56:07;;;;;;;29.48;14.25;;;;;;;11.40;100.00;93692.38;4956513;29;20509;-80
2022/10/18 02:58:32;;;;;;;23.83;13.45;;;;;;;11.41;100.00;93688.69;4959238;28;20039;-80
2022/10/18 03:00:58;;;;;;;25.70;13.45;;;;;;;11.40;100.00;93697.59;4957345;29;20039;-80
2022/10/18 03:03:24;;;;;;;27.60;13.45;;;;;;;11.40;100.00;93695.00;4957066;29;20584;-80
2022/10/18 03:05:50;;;;;;;21.23;11.40;;;;;;;11.41;100.00;93701.00;4956687;28;20035;-80
2022/10/18 03:08:15;;;;;;;21.88;11.27;;;;;;;11.39;100.00;93703.91;4956644;28;20066;-80
2022/10/18 03:10:45;;;;;;;21.90;11.90;;;;;;;11.39;100.00;93703.09;4958237;28;20035;-80
2022/10/18 03:13:11;;;;;;;24.00;11.65;;;;;;;11.37;100.00;93703.38;4958032;28;20621;-81
2022/10/18 03:15:36;;;;;;;19.27;10.63;;;;;;;11.37;100.00;93695.53;4956671;29;20043;-80
2022/10/18 03:18:02;;;;;;;18.25;10.07;;;;;;;11.33;100.00;93697.09;4940491;28;20043;-80
2022/10/18 03:20:28;;;;;;;22.00;10.88;;;;;;;11.33;100.00;93710.19;4958005;29;20546;-81
2022/10/18 03:22:54;;;;;;;18.15;10.20;;;;;;;11.32;100.00;93707.81;4940846;29;20501;-80
2022/10/18 03:25:19;;;;;;;21.20;9.88;;;;;;;11.29;100.00;93703.88;4957460;28;20027;-79
2022/10/18 03:27:45;;;;;;;19.08;10.98;;;;;;;11.27;100.00;93710.44;4957986;28;20062;-81
2022/10/18 03:30:12;;;;;;;18.70;10.10;;;;;;;11.21;100.00;93697.34;4940028;29;20046;-80
2022/10/18 03:32:38;;;;;;;23.20;11.38;;;;;;;11.21;100.00;93707.00;4955923;29;20540;-80
2022/10/18 03:35:04;;;;;;;23.88;12.65;;;;;;;11.16;100.00;93699.16;4956096;29;20062;-80
2022/10/18 03:37:30;;;;;;;24.55;11.50;;;;;;;11.15;100.00;93705.44;4957048;29;20035;-81
2022/10/18 03:39:56;;;;;;;21.25;11.90;;;;;;;11.11;100.00;93707.78;4958310;28;20252;-81
2022/10/18 03:42:21;;;;;;;27.70;12.00;;;;;;;11.10;100.00;93708.03;4955980;29;20059;-80
2022/10/18 03:44:47;;;;;;;19.80;11.45;;;;;;;11.08;100.00;93703.06;4955675;29;20039;-80
2022/10/18 03:47:13;;;;;;;20.75;11.63;;;;;;;11.09;100.00;93699.41;4957556;28;20473;-81
2022/10/18 03:49:38;;;;;;;24.45;12.93;;;;;;;11.11;100.00;93705.16;4958077;29;20106;-81
2022/10/18 03:52:04;;;;;;;26.30;12.65;;;;;;;11.11;100.00;93707.00;4957631;28;20043;-81
2022/10/18 03:54:30;;;;;;;24.83;12.77;;;;;;;11.04;100.00;93702.78;4956697;29;20046;-81
2022/10/18 03:56:55;;;;;;;25.65;12.85;;;;;;;11.06;100.00;93707.00;4958173;28;20077;-81
2022/10/18 03:59:21;;;;;;;20.90;12.18;;;;;;;11.07;100.00;93700.72;4939364;29;20043;-81
2022/10/18 04:01:47;;;;;;;28.13;13.07;;;;;;;11.02;100.00;93694.41;4957163;28;20039;-80
2022/10/18 04:04:13;;;;;;;24.98;13.70;;;;;;;11.02;100.00;93699.63;4955557;29;20032;-81
2022/10/18 04:06:39;;;;;;;19.52;12.35;;;;;;;11.04;100.00;93694.94;4950276;28;20179;-81
2022/10/18 04:09:05;;;;;;;29.50;13.68;;;;;;;11.03;100.00;93696.00;4937388;29;20051;-80
2022/10/18 04:11:31;;;;;;;26.17;13.80;;;;;;;11.03;100.00;93698.63;4939023;29;20095;-81
2022/10/18 04:13:56;;;;;;;27.40;14.38;;;;;;;11.01;100.00;93703.31;4937674;29;20039;-81
2022/10/18 04:16:22;;;;;;;30.42;15.35;;;;;;;11.00;100.00;93706.97;4947548;28;20045;-79
2022/10/18 04:18:48;;;;;;;25.52;13.82;;;;;;;10.97;100.00;93702.25;4949300;29;20038;-79
2022/10/18 04:21:14;;;;;;;25.35;14.13;;;;;;;10.96;100.00;93699.88;4956836;28;20039;-78
2022/10/18 04:23:39;;;;;;;25.45;14.50;;;;;;;10.95;100.00;93693.88;4955501;29;20090;-77
2022/10/18 04:26:06;;;;;;;25.48;14.95;;;;;;;10.96;100.00;93700.66;4954030;29;20028;-80
2022/10/18 04:28:32;;;;;;;25.08;14.32;;;;;;;10.91;100.00;93698.03;4955208;28;20046;-80
2022/10/18 04:30:58;;;;;;;29.50;14.68;;;;;;;10.90;100.00;93699.09;4954107;28;20481;-79
2022/10/18 04:33:24;;;;;;;26.17;13.88;;;;;;;10.89;100.00;93697.50;4953715;28;20055;-81
2022/10/18 04:35:51;;;;;;;28.85;15.05;;;;;;;10.89;100.00;93696.72;4953802;29;20039;-81
2022/10/18 04:38:16;;;;;;;28.35;15.40;;;;;;;10.89;100.00;93694.88;4952442;29;20031;-79
2022/10/18 04:40:42;;;;;;;28.08;14.88;;;;;;;10.87;100.00;93691.75;4951844;28;20496;-81
2022/10/18 04:43:08;;;;;;;27.30;15.13;;;;;;;10.91;100.00;93698.03;4956392;28;20401;-80
2022/10/18 04:45:34;;;;;;;25.83;14.82;;;;;;;10.91;100.00;93684.94;4959921;28;20114;-80
2022/10/18 04:48:19;;;;;;;30.52;14.35;;;;;;;10.90;100.00;93691.25;4958754;28;20033;-80
2022/10/18 04:50:47;;;;;;;26.23;15.02;;;;;;;10.90;100.00;93690.44;4957924;29;20057;-80
2022/10/18 04:53:14;;;;;;;30.33;15.13;;;;;;;10.88;100.00;93695.16;4958920;28;20401;-80
2022/10/18 04:59:08;;;;;;;28.48;14.80;;;;;;;10.90;100.00;93700.91;4955948;28;20106;-80
2022/10/18 05:01:34;;;;;;;31.35;16.27;;;;;;;10.87;100.00;93696.97;4942576;28;20062;-80
2022/10/18 05:03:59;;;;;;;30.50;15.85;;;;;;;10.88;100.00;93695.94;4938666;29;20047;-80
2022/10/18 05:06:25;;;;;;;30.05;15.40;;;;;;;10.90;100.00;93688.63;4940269;29;20031;-81
2022/10/18 05:08:50;;;;;;;31.83;16.50;;;;;;;10.90;100.00;93685.19;4927099;29;20575;-82
2022/10/18 05:11:16;;;;;;;34.85;16.42;;;;;;;10.93;100.00;93687.31;4957805;29;20043;-81
2022/10/18 05:13:42;;;;;;;31.58;15.77;;;;;;;10.88;100.00;93682.06;4960816;29;20214;-81
2022/10/18 05:16:07;;;;;;;31.98;16.25;;;;;;;10.91;100.00;93687.56;4971974;28;20031;-81
2022/10/18 05:18:33;;;;;;;29.35;15.27;;;;;;;10.91;100.00;93689.41;4940614;29;20047;-80
2022/10/18 05:20:59;;;;;;;32.97;16.27;;;;;;;10.92;100.00;93685.72;4960963;28;20039;-79
2022/10/18 05:23:24;;;;;;;32.05;15.57;;;;;;;10.92;100.00;93683.91;4947719;29;20047;-80
2022/10/18 05:25:50;;;;;;;28.23;15.20;;;;;;;10.88;100.00;93682.84;4938051;29;20047;-79
2022/10/18 05:28:16;;;;;;;33.85;15.63;;;;;;;10.92;100.00;93690.97;4936941;29;20032;-79
2022/10/18 05:30:41;;;;;;;28.70;15.88;;;;;;;10.90;100.00;93691.25;4940089;29;20066;-79
2022/10/18 05:33:07;;;;;;;32.00;15.68;;;;;;;10.92;100.00;93689.16;4944656;29;20032;-79
2022/10/18 05:35:33;;;;;;;31.60;16.02;;;;;;;10.92;100.00;93688.34;4939782;29;20054;-80
2022/10/18 05:38:07;;;;;;;29.30;15.95;;;;;;;10.92;100.00;93690.97;4942269;29;20035;-80
2022/10/18 05:40:33;;;;;;;32.15;15.90;;;;;;;10.89;100.00;93679.16;4944468;29;20462;-80
2022/10/18 05:42:58;;;;;;;33.90;16.92;;;;;;;10.92;100.00;93678.69;4943661;29;20047;-80
2022/10/18 05:45:24;;;;;;;27.73;14.88;;;;;;;10.92;100.00;93678.69;4941390;29;20032;-79
2022/10/18 05:47:50;;;;;;;28.35;15.38;;;;;;;10.91;100.00;93674.47;4941974;29;20048;-80
2022/10/18 05:50:15;;;;;;;27.88;14.73;;;;;;;10.95;100.00;93678.16;4924213;29;20110;-80
2022/10/18 05:52:41;;;;;;;35.22;15.73;;;;;;;10.95;100.00;93677.38;4940933;29;20095;-80
2022/10/18 05:55:07;;;;;;;28.23;15.68;;;;;;;10.95;100.00;93672.91;4926449;29;20039;-80
2022/10/18 05:57:32;;;;;;;28.30;15.55;;;;;;;11.00;100.00;93674.75;4942760;29;20048;-80
2022/10/18 05:59:58;;;;;;;26.10;15.23;;;;;;;11.06;100.00;93672.94;4941783;29;20051;-80
2022/10/18 06:02:23;;;;;;;28.98;14.38;;;;;;;11.11;100.00;93670.31;4956862;29;20042;-79
2022/10/18 06:04:49;;;;;;;27.02;13.88;;;;;;;11.21;100.00;93671.13;4940426;29;20036;-79
2022/10/18 06:07:15;;;;;;;27.75;13.70;;;;;;;11.33;100.00;93667.47;4940069;29;20070;-79
2022/10/18 06:09:40;;;;;;;20.75;12.07;;;;;;;11.50;100.00;93678.47;4941487;29;20047;-78
2022/10/18 06:12:07;;;;;;;30.13;13.13;;;;;;;11.58;100.00;93658.81;4940806;29;20051;-80
2022/10/18 06:14:34;;;;;;;26.80;12.18;;;;;;;11.95;100.00;93673.47;4940611;29;20501;-79
2022/10/18 06:16:59;;;;;;;31.08;12.95;;;;;;;12.26;100.00;93675.00;4940248;29;20027;-80
2022/10/18 06:19:25;;;;;;;27.50;13.20;;;;;;;12.57;100.00;93680.16;4940391;29;20036;-80
2022/10/18 06:21:50;;;;;;;21.30;11.15;;;;;;;12.97;100.00;93667.88;4939129;29;20043;-80
2022/10/18 06:24:17;;;;;;;21.85;10.55;;;;;;;13.38;100.00;93672.91;4939720;29;20028;-80
2022/10/18 06:26:43;;;;;;;21.48;11.02;;;;;;;13.79;100.00;93664.69;4941173;29;20082;-80
2022/10/18 06:29:09;;;;;;;21.17;10.65;;;;;;;14.29;100.00;93675.78;4941997;29;20059;-79
2022/10/18 06:31:34;;;;;;;16.15;10.18;;;;;;;14.83;100.00;93673.09;4941447;29;20553;-80
2022/10/18 06:34:00;;;;;;;20.90;10.15;;;;;;;15.34;96.46;93672.41;4941222;29;20067;-80
2022/10/18 06:36:27;;;;;;;19.17;9.10;;;;;;;15.89;94.90;93669.19;4941315;29;20067;-80
2022/10/18 06:38:53;;;;;;;14.30;8.70;;;;;;;16.40;92.64;93677.00;4940702;29;20365;-80
2022/10/18 06:41:19;;;;;;;16.17;9.05;;;;;;;16.96;88.75;93682.31;4941948;29;20055;-79
2022/10/18 06:44:12;;;;;;;16.40;9.43;;;;;;;17.63;83.19;93681.59;4941916;29;20039;-80
2022/10/18 06:46:39;;;;;;;15.73;9.27;;;;;;;18.18;79.87;93678.72;4941423;29;20036;-81
2022/10/18 06:49:04;;;;;;;13.70;8.90;;;;;;;18.84;80.07;93678.84;4941607;29;20508;-80
2022/10/18 06:51:30;;;;;;;15.02;8.77;;;;;;;19.28;73.31;93682.38;4942188;29;20047;-80
2022/10/18 06:53:55;;;;;;;13.68;8.65;;;;;;;19.87;72.35;93686.44;4942030;29;20047;-81
2022/10/18 06:56:21;;;;;;;17.55;10.15;;;;;;;20.13;70.06;93684.53;4942461;29;20035;-81
2022/10/18 06:58:46;;;;;;;25.73;9.60;;;;;;;20.53;69.08;93683.44;4957911;28;20046;-81
2022/10/18 07:01:14;;;;;;;17.85;9.43;;;;;;;21.16;66.39;93686.31;4943047;29;20038;-81
2022/10/18 07:03:41;;;;;;;19.75;10.57;;;;;;;21.68;65.93;93685.94;4941750;29;20035;-80
2022/10/18 07:06:09;;;;;;;18.13;9.57;;;;;;;22.09;63.56;93684.34;4926818;29;20494;-81
2022/10/18 07:08:35;;;;;;;19.75;9.98;;;;;;;22.34;60.40;93692.44;4943139;29;20063;-80
2022/10/18 07:11:01;;;;;;;16.70;9.90;;;;;;;22.76;58.31;93684.25;4943438;29;20044;-80
2022/10/18 07:13:31;;;;;;;20.42;10.60;;;;;;;23.14;55.39;93699.19;4943492;29;20704;-80
2022/10/18 07:16:09;;;;;;;19.70;10.93;;;;;;;23.63;53.60;93699.09;4943539;29;20675;-81
2022/10/18 07:18:36;;;;;;;19.25;10.18;;;;;;;23.70;53.05;93699.28;4941353;29;20120;-81
2022/10/18 07:21:03;;;;;;;16.08;10.13;;;;;;;23.83;53.50;93695.50;4943115;29;20035;-80
2022/10/18 07:23:32;;;;;;;25.00;10.88;;;;;;;23.93;53.28;93702.25;4925813;29;20040;-80
2022/10/18 07:25:59;;;;;;;17.65;10.88;;;;;;;23.77;52.62;93699.53;4942839;29;20045;-80
2022/10/18 07:28:25;;;;;;;20.80;10.90;;;;;;;23.64;52.08;93701.44;4944785;29;20087;-80
2022/10/18 07:30:50;;;;;;;19.48;9.88;;;;;;;22.52;56.15;93712.47;4928676;29;20040;-80
2022/10/18 07:33:16;;;;;;;17.33;10.45;;;;;;;22.14;57.46;93702.03;4960579;29;20051;-79
2022/10/18 07:35:41;;;;;;;18.70;10.65;;;;;;;21.84;59.01;93704.78;4945678;29;20027;-79
2022/10/18 07:38:07;;;;;;;16.55;10.60;;;;;;;21.88;59.75;93705.69;4944468;29;20067;-81
2022/10/18 07:40:32;;;;;;;17.50;10.60;;;;;;;21.70;58.44;93707.72;4945605;29;20095;-79
2022/10/18 07:42:58;;;;;;;19.90;10.60;;;;;;;21.31;60.31;93709.69;4946471;29;20038;-80
2022/10/18 07:45:23;;;;;;;19.38;10.48;;;;;;;21.06;61.06;93702.66;4944860;29;20048;-79
2022/10/18 07:47:56;;;;;;;18.65;10.27;;;;;;;21.11;58.80;93705.13;4945460;29;20040;-79
2022/10/18 07:50:22;;;;;;;29.17;10.80;;;;;;;20.76;61.07;93699.97;4946987;29;20071;-79
2022/10/18 07:52:47;;;;;;;24.50;10.80;;;;;;;20.40;63.72;93695.88;4945233;29;20028;-80
2022/10/18 07:55:13;;;;;;;29.77;11.60;;;;;;;20.32;63.79;93697.44;4913296;29;20098;-80
2022/10/18 07:57:38;;;;;;;26.45;11.57;;;;;;;20.13;63.65;93700.47;4946959;29;20115;-79
2022/10/18 08:00:04;;;;;;;27.88;11.02;;;;;;;19.61;66.05;93700.50;4945322;29;20461;-80
2022/10/18 08:02:37;;;;;;;20.10;11.23;;;;;;;19.64;66.29;93699.09;4915405;29;20047;-80
2022/10/18 08:05:02;;;;;;;22.35;11.30;;;;;;;19.49;67.76;93695.03;4928960;29;20051;-79
2022/10/18 08:07:28;;;;;;;22.27;11.18;;;;;;;19.75;66.45;93695.84;4929401;29;20056;-80
2022/10/18 08:09:53;;;;;;;25.73;10.85;;;;;;;19.38;67.27;93686.56;4945577;29;20520;-80
2022/10/18 08:12:19;;;;;;;23.13;11.27;;;;;;;19.70;68.53;93689.88;4945388;29;20046;-80
2022/10/18 08:14:45;;;;;;;18.42;9.95;;;;;;;20.13;67.80;93686.41;4946572;29;20095;-80
2022/10/18 08:17:11;;;;;;;16.45;10.00;;;;;;;20.53;64.70;93691.44;4944760;29;20079;-80
2022/10/18 08:19:37;;;;;;;26.38;10.98;;;;;;;20.26;64.81;93684.63;4944490;29;20047;-80
2022/10/18 08:22:02;;;;;;;28.33;11.38;;;;;;;20.44;65.43;93682.72;4945684;29;20047;-80
2022/10/18 08:24:28;;;;;;;19.52;10.95;;;;;;;20.35;64.65;93686.19;4946431;29;20044;-79
2022/10/18 08:26:54;;;;;;;23.52;11.15;;;;;;;20.18;66.37;93675.59;4944665;29;20039;-80
2022/10/18 08:29:19;;;;;;;20.35;10.55;;;;;;;20.06;64.99;93681.56;4943674;29;20039;-80
2022/10/18 08:31:45;;;;;;;22.50;11.50;;;;;;;19.95;66.42;93673.16;4927924;29;20040;-79
2022/10/18 08:34:10;;;;;;;25.40;10.43;;;;;;;20.12;66.06;93676.88;4941097;29;20652;-79
2022/10/18 08:36:36;;;;;;;19.42;10.07;;;;;;;20.17;66.81;93674.03;4958349;29;20038;-80
2022/10/18 08:39:02;;;;;;;21.20;10.07;;;;;;;20.63;66.30;93677.06;4926105;29;20035;-80
2022/10/18 08:41:36;;;;;;;17.85;11.07;;;;;;;20.63;63.91;93679.72;4941638;29;20040;-80
2022/10/18 08:44:31;;;;;;;30.05;11.10;;;;;;;20.32;66.06;93678.06;4942623;29;20040;-80
2022/10/18 08:47:02;;;;;;;23.58;10.57;;;;;;;19.99;66.51;93672.50;4943078;29;20027;-79
2022/10/18 08:49:43;;;;;;;24.42;10.80;;;;;;;20.14;64.51;93667.47;4942665;29;20493;-79
2022/10/18 08:52:19;;;;;;;17.50;10.30;;;;;;;20.16;65.25;93667.16;4957059;29;20036;-79
2022/10/18 08:54:59;;;;;;;23.10;10.68;;;;;;;20.15;65.72;93661.06;4940955;29;20059;-80
2022/10/18 08:57:25;;;;;;;20.88;10.77;;;;;;;19.99;65.86;93665.31;4942437;29;20031;-79
2022/10/18 08:59:50;;;;;;;19.13;10.35;;;;;;;20.23;64.59;93672.00;4941666;29;20508;-78
2022/10/18 09:02:34;;;;;;;16.23;9.07;;;;;;;20.35;64.08;93669.44;4942675;29;20100;-79
2022/10/18 09:04:59;;;;;;;17.02;9.90;;;;;;;20.41;63.77;93670.84;4942022;29;20120;-79
2022/10/18 09:07:35;;;;;;;19.65;9.45;;;;;;;20.59;62.83;93666.25;4955583;29;20069;-80
2022/10/18 09:10:26;;;;;;;17.90;10.13;;;;;;;20.36;64.24;93668.34;4941206;29;20044;-80
2022/10/18 09:13:27;;;;;;;17.88;10.13;;;;;;;20.48;64.23;93662.34;4942434;29;20046;-79
2022/10/18 09:15:59;;;;;;;25.77;11.00;;;;;;;20.61;62.49;93663.28;4921607;29;20051;-79
2022/10/18 09:18:58;;;;;;;20.80;9.77;;;;;;;20.47;63.94;93661.59;4940797;29;20594;-79
2022/10/18 09:21:52;;;;;;;19.77;10.52;;;;;;;20.69;64.01;93662.44;4956429;29;20032;-79
2022/10/18 09:24:27;;;;;;;16.35;10.00;;;;;;;21.18;62.12;93652.91;4950249;29;20077;-79
2022/10/18 09:27:03;;;;;;;17.58;9.93;;;;;;;21.61;60.57;93659.06;4941448;29;20047;-79
2022/10/18 09:29:41;;;;;;;17.02;9.48;;;;;;;21.52;60.33;93650.34;4955604;28;20498;-79
2022/10/18 09:32:30;;;;;;;21.20;9.27;;;;;;;21.50;59.67;93652.56;4941085;29;20039;-79
2022/10/18 09:35:00;;;;;;;15.80;10.00;;;;;;;21.34;59.33;93661.09;4955615;29;20056;-80
2022/10/18 09:37:31;;;;;;;21.38;10.68;;;;;;;21.53;60.58;93657.25;4940791;29;20091;-78
2022/10/18 09:40:11;;;;;;;17.27;9.75;;;;;;;21.52;57.49;93655.69;4939742;29;20074;-79
2022/10/18 09:42:41;;;;;;;24.98;10.13;;;;;;;21.52;58.66;93653.03;4939694;29;20040;-80
2022/10/18 09:45:15;;;;;;;19.30;9.95;;;;;;;21.37;58.40;93649.81;4940155;29;20111;-78
2022/10/18 09:47:48;;;;;;;21.73;10.40;;;;;;;20.73;60.99;93652.72;4939292;29;20031;-79
2022/10/18 09:50:25;;;;;;;17.85;9.10;;;;;;;20.90;61.60;93647.31;4939342;29;20128;-79
2022/10/18 09:53:02;;;;;;;16.02;7.82;;;;;;;20.73;55.89;93652.72;4937673;29;20071;-80
2022/10/18 09:55:34;;;;;;;16.83;8.15;;;;;;;21.00;57.54;93649.59;4939730;29;20059;-81
2022/10/18 09:58:03;;;;;;;17.40;9.30;;;;;;;20.88;56.64;93644.19;4938244;29;20031;-80
2022/10/18 10:00:37;;;;;;;17.33;8.93;;;;;;;21.08;58.32;93652.53;4939793;29;20107;-80
2022/10/18 10:03:14;;;;;;;16.63;8.60;;;;;;;20.84;58.64;93648.59;4938476;29;20059;-80
2022/10/18 10:05:42;;;;;;;17.98;8.50;;;;;;;20.74;57.88;93651.66;4937637;29;20091;-80
2022/10/18 10:08:07;;;;;;;15.30;6.28;;;;;;;20.76;59.18;93641.44;4939376;28;20129;-82
2022/10/18 10:10:34;;;;;;;15.57;8.88;;;;;;;20.64;58.25;93650.09;4924350;29;20082;-77
2022/10/18 10:13:13;;;;;;;15.25;8.40;;;;;;;20.15;60.66;93644.31;4935829;29;20046;-78
2022/10/18 10:15:40;;;;;;;19.35;9.57;;;;;;;19.95;61.62;93640.50;4953346;28;20031;-78
2022/10/18 10:18:20;;;;;;;15.52;8.68;;;;;;;20.05;62.68;93639.38;4943885;29;20043;-78
2022/10/18 10:20:54;;;;;;;27.88;9.20;;;;;;;20.20;62.45;93640.72;4943982;29;20061;-78
2022/10/18 10:23:22;;;;;;;14.50;9.18;;;;;;;19.95;63.39;93635.16;4951814;29;20078;-78
2022/10/18 10:25:58;;;;;;;16.17;8.38;;;;;;;19.79;62.54;93636.75;4954212;29;20027;-78
2022/10/18 10:28:45;;;;;;;18.75;9.00;;;;;;;19.94;63.20;93634.38;4954810;28;20070;-78
2022/10/18 10:31:31;;;;;;;17.25;9.30;;;;;;;19.84;63.33;93628.63;4954813;29;20039;-78
2022/10/18 10:33:59;;;;;;;17.23;9.13;;;;;;;20.13;61.47;93631.38;4955343;29;20105;-77
2022/10/18 10:36:25;;;;;;;18.00;8.32;;;;;;;20.70;60.72;93626.78;4936365;29;20087;-78
2022/10/18 10:39:17;;;;;;;19.83;8.73;;;;;;;20.91;59.41;93630.25;4937537;29;20047;-79
2022/10/18 10:41:53;;;;;;;12.57;7.72;;;;;;;20.83;58.96;93631.09;4954032;29;20032;-78
2022/10/18 10:44:31;;;;;;;15.73;7.95;;;;;;;20.97;58.30;93630.84;4944415;29;20031;-78
2022/10/18 10:46:57;;;;;;;16.80;8.52;;;;;;;21.08;59.91;93625.94;4938656;29;20028;-79
2022/10/18 10:49:28;;;;;;;17.33;9.85;;;;;;;20.88;61.41;93622.91;4953909;28;20066;-78
2022/10/18 10:52:00;;;;;;;16.58;9.30;;;;;;;20.55;59.93;93612.88;4954095;29;20070;-78
2022/10/18 10:54:28;;;;;;;21.08;9.55;;;;;;;20.32;62.63;93612.38;4950950;29;20077;-77
2022/10/18 10:57:23;;;;;;;19.25;9.57;;;;;;;20.43;63.40;93609.34;4955240;28;20062;-78
2022/10/18 10:59:51;;;;;;;13.38;7.90;;;;;;;20.51;57.97;93604.00;4953835;28;20565;-78
2022/10/18 11:02:21;;;;;;;11.82;7.75;;;;;;;20.85;57.82;93599.63;4955424;28;20047;-79
2022/10/18 11:04:51;;;;;;;14.48;8.15;;;;;;;20.90;56.42;93593.31;4955154;28;20527;-78
2022/10/18 11:07:35;;;;;;;16.85;9.02;;;;;;;20.74;57.63;93593.88;4953658;29;20053;-78
2022/10/18 11:10:27;;;;;;;17.05;8.82;;;;;;;20.67;59.65;93590.97;4946040;29;20031;-78
2022/10/18 11:13:21;;;;;;;13.40;8.17;;;;;;;20.44;59.27;93584.31;4954446;28;20035;-77
2022/10/18 11:15:53;;;;;;;17.65;9.32;;;;;;;20.57;62.46;93580.69;4953283;29;20377;-77
2022/10/18 11:18:27;;;;;;;13.45;7.72;;;;;;;20.56;62.31;93574.59;4952978;29;20062;-77
2022/10/18 11:21:19;;;;;;;12.85;8.02;;;;;;;20.69;63.02;93574.66;4954444;29;20042;-77
2022/10/18 11:23:45;;;;;;;;;;;;;;;20.61;62.83;93570.19;4953859;29;20484;-77
2022/10/18 11:26:10;;;;;;;16.58;9.07;;;;;;;20.59;62.89;93576.59;4952933;28;19918;-77
2022/10/18 11:28:54;;;;;;;18.17;9.57;;;;;;;20.50;63.52;93562.53;4956382;28;20068;-78
2022/10/18 11:31:47;;;;;;;16.27;8.75;;;;;;;20.30;62.39;93561.38;4954399;29;20397;-78